createdAt,value
2019-05-11T00:03:20.853Z,12.17
2019-05-11T00:07:22.981Z,14.23
2019-05-11T00:11:25.244Z,12.80
2019-05-11T00:15:27.541Z,10.80
2019-05-11T00:19:30.890Z,9.57
2019-05-11T00:23:32.991Z,10.00
2019-05-11T00:27:35.165Z,9.53
2019-05-11T00:31:37.374Z,9.97
2019-05-11T00:35:39.496Z,9.83
2019-05-11T00:39:41.658Z,9.53
2019-05-11T00:43:43.934Z,10.40
2019-05-11T00:47:46.316Z,9.73
2019-05-11T00:51:48.622Z,9.67
2019-05-11T00:55:51.051Z,10.27
2019-05-11T00:59:53.297Z,11.50
2019-05-11T01:03:55.434Z,11.70
2019-05-11T01:07:58.494Z,13.67
2019-05-11T01:12:00.678Z,13.20
2019-05-11T01:16:04.572Z,13.73
2019-05-11T01:20:07.154Z,14.87
2019-05-11T01:24:09.466Z,15.53
2019-05-11T01:28:13.116Z,17.53
2019-05-11T01:32:15.432Z,16.50
2019-05-11T01:36:17.759Z,16.77
2019-05-11T01:40:20.003Z,18.90
2019-05-11T01:44:22.536Z,17.77
2019-05-11T01:48:24.655Z,19.53
2019-05-11T01:52:27.033Z,17.93
2019-05-11T01:56:29.219Z,17.23
2019-05-11T02:00:32.480Z,18.40
2019-05-11T02:04:34.630Z,18.83
2019-05-11T02:08:36.962Z,19.30
2019-05-11T02:12:39.004Z,16.13
2019-05-11T02:16:41.618Z,16.80
2019-05-11T02:20:43.860Z,14.30
2019-05-11T02:24:46.255Z,14.57
2019-05-11T02:28:48.497Z,12.30
2019-05-11T02:32:50.832Z,12.30
2019-05-11T02:36:53.104Z,10.40
2019-05-11T02:40:55.312Z,10.17
2019-05-11T02:44:57.590Z,10.00
2019-05-11T02:48:59.828Z,9.87
2019-05-11T02:53:02.386Z,8.70
2019-05-11T02:57:04.714Z,8.43
2019-05-11T03:01:06.892Z,9.63
2019-05-11T03:05:09.376Z,9.77
2019-05-11T03:09:11.523Z,9.57
2019-05-11T03:13:14.323Z,9.53
2019-05-11T03:17:20.616Z,10.53
2019-05-11T03:21:22.914Z,9.83
2019-05-11T03:25:25.354Z,9.33
2019-05-11T03:29:27.777Z,9.23
2019-05-11T03:33:30.070Z,9.30
2019-05-11T03:37:32.455Z,8.80
2019-05-11T03:41:34.656Z,10.20
2019-05-11T03:45:37.166Z,10.37
2019-05-11T03:49:39.574Z,9.53
2019-05-11T03:53:41.860Z,9.97
2019-05-11T03:57:44.020Z,9.20
2019-05-11T04:01:46.260Z,8.90
2019-05-11T04:05:49.499Z,10.40
2019-05-11T04:09:51.715Z,9.30
2019-05-11T04:13:54.055Z,10.77
2019-05-11T04:17:56.370Z,10.20
2019-05-11T04:21:58.542Z,10.03
2019-05-11T04:26:00.943Z,9.40
2019-05-11T04:30:03.020Z,8.60
2019-05-11T04:34:05.233Z,9.90
2019-05-11T04:38:07.443Z,10.80
2019-05-11T04:42:09.766Z,9.43
2019-05-11T04:46:12.033Z,9.73
2019-05-11T04:50:14.774Z,10.27
2019-05-11T04:54:17.054Z,9.73
2019-05-11T04:58:19.271Z,11.17
2019-05-11T05:02:21.853Z,11.13
2019-05-11T05:06:24.771Z,10.57
2019-05-11T05:10:27.011Z,12.30
2019-05-11T05:14:29.285Z,12.70
2019-05-11T05:18:31.922Z,12.67
2019-05-11T05:22:34.216Z,12.87
2019-05-11T05:26:36.461Z,11.63
2019-05-11T05:30:38.823Z,10.60
2019-05-11T05:34:40.922Z,10.83
2019-05-11T05:38:43.142Z,9.93
2019-05-11T05:42:45.287Z,11.73
2019-05-11T05:46:47.618Z,10.37
2019-05-11T05:50:49.725Z,11.10
2019-05-11T05:54:51.969Z,9.63
2019-05-11T05:58:54.201Z,11.07
2019-05-11T06:02:56.402Z,10.27
2019-05-11T06:06:58.482Z,10.40
2019-05-11T06:11:00.766Z,10.57
2019-05-11T06:15:04.044Z,11.77
2019-05-11T06:19:06.648Z,11.97
2019-05-11T06:23:08.897Z,11.03
2019-05-11T06:27:12.051Z,12.10
2019-05-11T06:31:14.198Z,12.23
2019-05-11T06:35:16.720Z,12.87
2019-05-11T06:39:19.179Z,12.13
2019-05-11T06:43:21.491Z,13.80
2019-05-11T06:47:23.653Z,14.27
2019-05-11T06:51:27.323Z,12.70
2019-05-11T06:55:29.664Z,11.47
2019-05-11T06:59:31.933Z,12.80
2019-05-11T07:03:34.421Z,12.87
2019-05-11T07:07:47.025Z,10.77
2019-05-11T07:11:42.548Z,11.23
2019-05-11T07:15:44.781Z,11.93
2019-05-11T07:19:47.701Z,12.10
2019-05-11T07:23:50.140Z,12.23
2019-05-11T07:27:52.631Z,11.87
2019-05-11T07:31:54.823Z,12.57
2019-05-11T07:35:58.274Z,12.70
2019-05-11T07:40:00.587Z,12.93
2019-05-11T07:44:04.182Z,11.73
2019-05-11T07:48:08.037Z,11.03
2019-05-11T07:52:10.297Z,12.97
2019-05-11T07:56:12.462Z,13.27
2019-05-11T08:00:14.742Z,12.50
2019-05-11T08:04:18.300Z,13.77
2019-05-11T08:08:20.763Z,14.07
2019-05-11T08:12:23.163Z,14.80
2019-05-11T08:16:28.235Z,14.10
2019-05-11T08:20:29.653Z,14.13
2019-05-11T08:24:32.003Z,13.93
2019-05-11T08:28:34.317Z,15.77
2019-05-11T08:32:38.705Z,14.90
2019-05-11T08:36:40.824Z,15.67
2019-05-11T08:40:43.163Z,15.73
2019-05-11T08:44:45.516Z,14.53
2019-05-11T08:48:47.994Z,15.77
2019-05-11T08:52:50.474Z,14.67
2019-05-11T08:56:53.557Z,16.77
2019-05-11T09:00:58.043Z,16.73
2019-05-11T09:04:59.642Z,14.97
2019-05-11T09:09:01.988Z,16.70
2019-05-11T09:13:04.390Z,15.77
2019-05-11T09:17:07.858Z,16.73
2019-05-11T09:21:11.413Z,16.57
2019-05-11T09:25:14.050Z,14.53
2019-05-11T09:29:17.994Z,16.33
2019-05-11T09:33:20.845Z,16.37
2019-05-11T09:37:22.997Z,15.77
2019-05-11T09:41:25.250Z,17.07
2019-05-11T09:45:27.907Z,16.43
2019-05-11T09:49:43.743Z,16.07
2019-05-11T09:53:38.666Z,14.37
2019-05-11T09:57:40.385Z,16.00
2019-05-11T10:01:42.526Z,15.40
2019-05-11T10:05:45.057Z,15.73
2019-05-11T10:09:47.875Z,17.67
2019-05-11T10:13:50.470Z,17.30
2019-05-11T10:17:52.496Z,15.57
2019-05-11T10:21:55.126Z,16.13
2019-05-11T10:25:58.590Z,15.07
2019-05-11T10:30:02.026Z,16.03
2019-05-11T10:34:05.501Z,15.40
2019-05-11T10:38:09.069Z,14.70
2019-05-11T10:42:11.586Z,13.67
2019-05-11T10:46:19.526Z,13.30
2019-05-11T10:50:18.848Z,13.07
2019-05-11T10:54:21.315Z,12.70
2019-05-11T10:58:23.481Z,12.10
2019-05-11T11:02:27.691Z,11.60
2019-05-11T11:06:29.569Z,11.93
2019-05-11T11:10:31.801Z,11.50
2019-05-11T11:14:34.131Z,11.17
2019-05-11T11:18:38.110Z,11.00
2019-05-11T11:22:44.036Z,11.50
2019-05-11T11:26:44.920Z,11.93
2019-05-11T11:30:48.018Z,11.50
2019-05-11T11:34:50.295Z,12.37
2019-05-11T11:38:52.548Z,11.87
2019-05-11T11:42:54.897Z,11.53
2019-05-11T11:46:59.105Z,10.73
2019-05-11T11:51:01.058Z,10.53
2019-05-11T11:55:03.007Z,10.60
2019-05-11T11:59:05.324Z,9.30
2019-05-11T12:03:08.144Z,8.27
2019-05-11T12:07:10.485Z,9.40
2019-05-11T12:11:12.540Z,7.87
2019-05-11T12:15:14.937Z,7.70
2019-05-11T12:19:18.697Z,7.30
2019-05-11T12:23:21.450Z,7.17
2019-05-11T12:27:23.482Z,6.60
2019-05-11T12:31:25.789Z,6.43
2019-05-11T12:35:29.362Z,5.80
2019-05-11T12:39:31.585Z,7.13
2019-05-11T12:43:33.750Z,6.07
2019-05-11T12:47:38.360Z,6.27
2019-05-11T12:51:40.978Z,6.10
2019-05-11T12:55:43.199Z,6.20
2019-05-11T12:59:45.364Z,5.70
2019-05-11T13:03:49.341Z,6.13
2019-05-11T13:07:51.583Z,5.90
2019-05-11T13:11:53.740Z,6.33
2019-05-11T13:15:55.797Z,7.03
2019-05-11T13:19:58.750Z,6.90
2019-05-11T13:24:02.348Z,6.53
2019-05-11T13:28:05.912Z,6.87
2019-05-11T13:32:10.282Z,7.23
2019-05-11T13:36:12.630Z,8.20
2019-05-11T13:40:15.403Z,7.23
2019-05-11T13:44:18.595Z,6.97
2019-05-11T13:48:21.443Z,6.80
2019-05-11T13:52:28.538Z,7.87
2019-05-11T13:56:32.389Z,6.57
2019-05-11T14:00:34.830Z,8.07
2019-05-11T14:04:38.644Z,8.20
2019-05-11T14:08:41.257Z,7.87
2019-05-11T14:12:43.835Z,8.50
2019-05-11T14:16:48.427Z,8.50
2019-05-11T14:20:52.052Z,8.70
2019-05-11T14:24:54.483Z,7.63
2019-05-11T14:28:58.290Z,8.13
2019-05-11T14:33:00.473Z,7.90
2019-05-11T14:37:02.927Z,8.60
2019-05-11T14:41:07.578Z,8.50
2019-05-11T14:45:09.326Z,9.20
2019-05-11T14:49:11.378Z,8.53
2019-05-11T14:53:13.694Z,9.63
2019-05-11T14:57:18.446Z,9.70
2019-05-11T15:01:19.945Z,9.60
2019-05-11T15:05:22.717Z,9.47
2019-05-11T15:09:24.862Z,9.87
2019-05-11T15:13:28.807Z,10.43
2019-05-11T15:17:31.133Z,10.63
2019-05-11T15:21:33.529Z,11.07
2019-05-11T15:25:37.702Z,11.67
2019-05-11T15:29:39.732Z,11.33
2019-05-11T15:33:41.945Z,11.63
2019-05-11T15:37:44.232Z,11.50
2019-05-11T15:41:47.984Z,11.23
2019-05-11T15:45:50.606Z,10.57
2019-05-11T15:49:54.538Z,11.40
2019-05-11T15:53:58.678Z,12.43
2019-05-11T15:58:01.227Z,12.50
2019-05-11T16:02:03.689Z,12.63
2019-05-11T16:06:07.873Z,12.40
2019-05-11T16:10:11.636Z,12.37
2019-05-11T16:14:15.495Z,12.00
2019-05-11T16:18:18.910Z,10.90
2019-05-11T16:22:21.410Z,11.07
2019-05-11T16:26:23.690Z,10.73
2019-05-11T16:30:25.764Z,11.03
2019-05-11T16:34:28.179Z,11.17
2019-05-11T16:38:30.800Z,11.20
2019-05-11T16:42:33.850Z,12.30
2019-05-11T16:46:40.028Z,28.50
2019-05-11T16:50:44.280Z,31.90
2019-05-11T16:54:47.804Z,10.73
2019-05-11T16:58:50.564Z,11.90
2019-05-11T17:02:57.705Z,23.13
2019-05-11T17:06:59.738Z,29.47
2019-05-11T17:11:01.964Z,22.73
2019-05-11T17:15:04.354Z,11.87
2019-05-11T17:19:07.897Z,10.47
2019-05-11T17:23:10.391Z,11.43
2019-05-11T17:27:12.564Z,13.40
2019-05-11T17:31:18.597Z,12.57
2019-05-11T17:35:23.490Z,16.40
2019-05-11T17:39:28.176Z,13.43
2019-05-11T17:43:32.087Z,12.40
2019-05-11T17:47:34.958Z,12.77
2019-05-11T17:51:38.432Z,13.37
2019-05-11T17:55:42.610Z,15.90
2019-05-11T17:59:47.697Z,15.23
2019-05-11T18:03:53.705Z,13.17
2019-05-11T18:07:57.994Z,11.73
2019-05-11T18:12:00.405Z,12.23
2019-05-11T18:16:09.694Z,13.20
2019-05-11T18:20:17.931Z,14.30
2019-05-11T18:24:28.355Z,12.00
2019-05-11T18:28:31.142Z,10.83
2019-05-11T18:32:33.260Z,11.63
2019-05-11T18:36:35.491Z,10.90
2019-05-11T18:40:38.170Z,11.93
2019-05-11T18:44:40.551Z,11.60
2019-05-11T18:48:42.704Z,10.87
2019-05-11T18:52:44.935Z,10.23
2019-05-11T18:56:48.858Z,10.67
2019-05-11T19:00:51.079Z,10.43
2019-05-11T19:04:54.103Z,9.77
2019-05-11T19:08:58.107Z,9.30
2019-05-11T19:13:00.412Z,9.03
2019-05-11T19:17:02.879Z,9.80
2019-05-11T19:21:05.571Z,7.27
2019-05-11T19:25:18.240Z,10.27
2019-05-11T19:29:21.714Z,10.00
2019-05-11T19:33:24.033Z,10.17
2019-05-11T19:37:27.860Z,10.03
2019-05-11T19:41:30.604Z,10.17
2019-05-11T19:45:32.800Z,11.20
2019-05-11T19:49:35.303Z,9.43
2019-05-11T19:53:38.610Z,11.37
2019-05-11T19:57:41.166Z,11.70
2019-05-11T20:01:44.748Z,11.30
2019-05-11T20:05:48.544Z,10.07
2019-05-11T20:09:51.987Z,10.83
2019-05-11T20:13:54.214Z,9.73
2019-05-11T20:17:58.465Z,10.73
2019-05-11T20:22:00.510Z,10.27
2019-05-11T20:26:02.952Z,10.57
2019-05-11T20:30:05.448Z,10.03
2019-05-11T20:34:07.713Z,10.37
2019-05-11T20:38:10.133Z,6.03
2019-05-11T20:42:12.184Z,10.33
2019-05-11T20:46:14.389Z,9.83
2019-05-11T20:50:18.404Z,10.17
2019-05-11T20:54:20.470Z,10.23
2019-05-11T20:58:22.633Z,12.80
2019-05-11T21:02:24.892Z,11.50
2019-05-11T21:06:29.382Z,10.73
2019-05-11T21:10:31.069Z,11.27
2019-05-11T21:14:33.451Z,10.90
2019-05-11T21:18:38.005Z,11.13
2019-05-11T21:22:40.744Z,11.83
2019-05-11T21:26:43.257Z,12.40
2019-05-11T21:30:47.925Z,10.53
2019-05-11T21:34:49.317Z,11.67
2019-05-11T21:38:51.691Z,12.73
2019-05-11T21:42:54.009Z,11.93
2019-05-11T21:46:56.158Z,11.90
2019-05-11T21:50:59.934Z,12.60
2019-05-11T21:55:02.187Z,12.93
2019-05-11T21:59:04.382Z,12.13
2019-05-11T22:03:09.988Z,10.87
2019-05-11T22:07:10.922Z,11.17
2019-05-11T22:11:14.254Z,12.03
2019-05-11T22:15:18.037Z,11.73
2019-05-11T22:19:20.232Z,12.47
2019-05-11T22:23:22.871Z,11.60
2019-05-11T22:27:24.925Z,12.00
2019-05-11T22:31:27.996Z,11.27
2019-05-11T22:35:30.395Z,9.53
2019-05-11T22:39:32.744Z,12.40
2019-05-11T22:43:34.849Z,12.03
2019-05-11T22:47:39.262Z,12.10
2019-05-11T22:51:40.950Z,12.00
2019-05-11T22:55:43.161Z,11.60
2019-05-11T22:59:45.529Z,10.87
2019-05-11T23:03:47.986Z,11.63
2019-05-11T23:07:50.172Z,12.50
2019-05-11T23:11:52.333Z,13.03
2019-05-11T23:15:54.607Z,13.10
2019-05-11T23:19:57.962Z,11.80
2019-05-11T23:24:01.244Z,12.73
2019-05-11T23:28:03.416Z,13.43
2019-05-11T23:32:05.675Z,14.07
2019-05-11T23:36:07.971Z,14.03
2019-05-11T23:40:10.428Z,15.37
2019-05-11T23:44:12.790Z,11.33
2019-05-11T23:48:15.061Z,13.90
2019-05-11T23:52:18.045Z,14.90
2019-05-11T23:56:20.444Z,13.63
